createdAt,value
2023-04-25T00:06:03.010Z,1.90
2023-04-25T00:08:31.295Z,1.70
2023-04-25T00:10:58.937Z,1.63
2023-04-25T00:13:26.514Z,1.53
2023-04-25T00:15:57.281Z,1.70
2023-04-25T00:18:24.360Z,1.50
2023-04-25T00:20:51.204Z,2.00
2023-04-25T00:23:21.245Z,1.80
2023-04-25T00:25:49.715Z,1.93
2023-04-25T00:28:16.693Z,2.23
2023-04-25T00:30:43.963Z,1.80
2023-04-25T00:33:11.339Z,2.03
2023-04-25T00:35:39.282Z,2.00
2023-04-25T00:38:06.273Z,1.97
2023-04-25T00:40:33.112Z,1.70
2023-04-25T00:42:59.867Z,1.90
2023-04-25T00:45:30.348Z,1.80
2023-04-25T00:47:57.712Z,2.10
2023-04-25T00:50:25.615Z,1.90
2023-04-25T00:52:52.867Z,1.70
2023-04-25T00:55:20.537Z,2.10
2023-04-25T00:57:47.912Z,2.10
2023-04-25T01:00:15.696Z,2.10
2023-04-25T01:02:45.835Z,2.00
2023-04-25T01:05:13.195Z,1.93
2023-04-25T01:07:40.424Z,1.70
2023-04-25T01:10:08.134Z,1.90
2023-04-25T01:12:35.291Z,1.80
2023-04-25T01:15:02.142Z,2.20
2023-04-25T01:17:30.141Z,2.00
2023-04-25T01:19:57.318Z,1.60
2023-04-25T01:22:24.273Z,1.57
2023-04-25T01:24:51.976Z,1.67
2023-04-25T01:27:19.383Z,1.57
2023-04-25T01:29:47.273Z,1.70
2023-04-25T01:32:15.053Z,1.70
2023-04-25T01:34:41.954Z,1.90
2023-04-25T01:37:08.751Z,1.77
2023-04-25T01:39:35.597Z,2.10
2023-04-25T01:42:02.763Z,1.50
2023-04-25T01:44:31.074Z,1.83
2023-04-25T01:46:58.021Z,1.90
2023-04-25T01:49:26.436Z,1.87
2023-04-25T01:51:53.453Z,2.17
2023-04-25T01:54:20.242Z,1.77
2023-04-25T01:56:52.124Z,2.20
2023-04-25T01:59:21.348Z,1.80
2023-04-25T02:02:06.923Z,1.80
2023-04-25T02:04:36.269Z,2.20
2023-04-25T02:07:04.608Z,1.57
2023-04-25T02:09:45.373Z,1.83
2023-04-25T02:12:13.330Z,2.10
2023-04-25T02:14:58.711Z,2.03
2023-04-25T02:17:41.786Z,1.70
2023-04-25T02:20:09.095Z,2.07
2023-04-25T02:22:36.436Z,1.90
2023-04-25T02:25:06.249Z,1.73
2023-04-25T02:27:33.180Z,1.53
2023-04-25T02:29:59.944Z,1.40
2023-04-25T02:32:27.924Z,1.80
2023-04-25T02:34:54.948Z,1.70
2023-04-25T02:37:21.845Z,1.80
2023-04-25T02:39:48.619Z,1.80
2023-04-25T02:42:15.423Z,1.90
2023-04-25T02:44:42.118Z,1.53
2023-04-25T02:47:08.895Z,1.80
2023-04-25T02:49:35.696Z,1.77
2023-04-25T02:52:02.582Z,1.97
2023-04-25T02:54:29.407Z,1.80
2023-04-25T02:56:56.713Z,2.00
2023-04-25T02:59:27.552Z,1.90
2023-04-25T03:01:54.422Z,1.80
2023-04-25T03:04:21.878Z,1.80
2023-04-25T03:06:48.872Z,1.77
2023-04-25T03:09:15.883Z,1.80
2023-04-25T03:11:42.855Z,1.67
2023-04-25T03:14:09.578Z,1.70
2023-04-25T03:16:36.406Z,1.93
2023-04-25T03:19:04.238Z,1.50
2023-04-25T03:21:35.771Z,1.90
2023-04-25T03:24:04.215Z,1.80
2023-04-25T03:26:31.513Z,2.40
2023-04-25T03:28:58.221Z,1.93
2023-04-25T03:31:25.259Z,1.80
2023-04-25T03:33:52.314Z,2.00
2023-04-25T03:36:22.179Z,1.80
2023-04-25T03:38:49.412Z,2.47
2023-04-25T03:41:17.450Z,3.63
2023-04-25T03:43:57.666Z,3.17
2023-04-25T03:46:24.483Z,2.50
2023-04-25T03:48:51.700Z,2.23
2023-04-25T03:51:22.803Z,2.20
2023-04-25T03:53:49.718Z,7.70
2023-04-25T03:56:31.602Z,7.47
2023-04-25T03:59:05.980Z,8.07
2023-04-25T04:01:32.850Z,7.23
2023-04-25T04:04:00.009Z,3.40
2023-04-25T04:06:27.710Z,2.70
2023-04-25T04:09:02.506Z,2.10
2023-04-25T04:11:33.317Z,2.50
2023-04-25T04:14:00.137Z,2.27
2023-04-25T04:16:27.794Z,2.23
2023-04-25T04:18:54.687Z,2.30
2023-04-25T04:21:21.400Z,2.40
2023-04-25T04:23:49.267Z,2.10
2023-04-25T04:26:19.785Z,2.10
2023-04-25T04:28:57.633Z,2.10
2023-04-25T04:31:51.645Z,2.03
2023-04-25T04:34:19.390Z,2.30
2023-04-25T04:36:47.785Z,2.30
2023-04-25T04:39:15.093Z,3.27
2023-04-25T04:42:05.950Z,4.17
2023-04-25T04:44:53.154Z,3.80
2023-04-25T04:47:37.674Z,3.37
2023-04-25T04:50:28.323Z,3.23
2023-04-25T04:53:24.209Z,4.40
2023-04-25T04:56:02.757Z,4.63
2023-04-25T04:58:50.132Z,3.73
2023-04-25T05:01:42.953Z,4.97
2023-04-25T05:04:10.057Z,4.63
2023-04-25T05:06:56.980Z,4.00
2023-04-25T05:09:27.704Z,3.40
2023-04-25T05:12:07.017Z,2.73
2023-04-25T05:14:51.677Z,2.83
2023-04-25T05:17:37.328Z,2.50
2023-04-25T05:20:22.766Z,2.57
2023-04-25T05:22:55.162Z,3.17
2023-04-25T05:25:45.150Z,2.23
2023-04-25T05:28:35.156Z,2.67
2023-04-25T05:31:15.703Z,3.20
2023-04-25T05:33:49.820Z,2.80
2023-04-25T05:36:17.731Z,2.70
2023-04-25T05:38:45.082Z,2.40
2023-04-25T05:41:31.778Z,3.53
2023-04-25T05:44:02.366Z,11.53
2023-04-25T05:46:35.151Z,16.70
2023-04-25T05:49:25.663Z,9.17
2023-04-25T05:52:02.811Z,4.90
2023-04-25T05:54:58.955Z,3.73
2023-04-25T05:57:26.935Z,2.70
2023-04-25T05:59:55.719Z,2.40
2023-04-25T06:02:25.803Z,2.77
2023-04-25T06:04:54.185Z,2.90
2023-04-25T06:07:23.125Z,2.27
2023-04-25T06:09:50.187Z,2.60
2023-04-25T06:12:16.945Z,2.60
2023-04-25T06:14:43.808Z,2.63
2023-04-25T06:17:10.590Z,2.53
2023-04-25T06:19:37.549Z,2.57
2023-04-25T06:22:04.888Z,2.83
2023-04-25T06:24:32.982Z,2.60
2023-04-25T06:26:59.722Z,2.80
2023-04-25T06:29:26.703Z,2.57
2023-04-25T06:31:53.715Z,2.40
2023-04-25T06:34:21.825Z,2.10
2023-04-25T06:36:48.654Z,2.30
2023-04-25T06:39:16.876Z,2.13
2023-04-25T06:41:43.615Z,2.43
2023-04-25T06:44:30.997Z,2.53
2023-04-25T06:46:58.318Z,2.57
2023-04-25T06:49:25.830Z,2.63
2023-04-25T06:51:52.651Z,2.77
2023-04-25T06:54:19.369Z,3.10
2023-04-25T06:56:56.882Z,2.47
2023-04-25T06:59:23.747Z,2.67
2023-04-25T07:01:51.290Z,2.83
2023-04-25T07:04:21.906Z,2.57
2023-04-25T07:06:51.882Z,2.40
2023-04-25T07:09:23.909Z,2.87
2023-04-25T07:11:52.003Z,2.50
2023-04-25T07:14:18.852Z,2.90
2023-04-25T07:16:46.012Z,2.87
2023-04-25T07:19:13.426Z,2.27
2023-04-25T07:21:40.402Z,2.90
2023-04-25T07:24:07.695Z,3.27
2023-04-25T07:26:39.155Z,3.50
2023-04-25T07:29:38.397Z,3.50
2023-04-25T07:32:05.634Z,3.83
2023-04-25T07:34:33.100Z,3.00
2023-04-25T07:37:00.563Z,3.20
2023-04-25T07:39:32.940Z,2.80
2023-04-25T07:42:01.382Z,2.30
2023-04-25T07:44:31.380Z,2.47
2023-04-25T07:46:58.621Z,2.63
2023-04-25T07:49:25.773Z,2.50
2023-04-25T07:51:52.542Z,2.03
2023-04-25T07:54:20.851Z,2.63
2023-04-25T07:56:53.854Z,2.50
2023-04-25T07:59:26.409Z,2.20
2023-04-25T08:01:54.373Z,2.80
2023-04-25T08:04:23.790Z,2.13
2023-04-25T08:06:55.291Z,2.60
2023-04-25T08:09:25.979Z,2.00
2023-04-25T08:11:53.688Z,2.00
2023-04-25T08:14:26.343Z,2.57
2023-04-25T08:16:53.445Z,2.53
2023-04-25T08:19:20.912Z,2.00
2023-04-25T08:21:48.240Z,1.83
2023-04-25T08:24:19.838Z,1.70
2023-04-25T08:26:46.644Z,1.87
2023-04-25T08:29:16.862Z,2.00
2023-04-25T08:31:44.236Z,2.30
2023-04-25T08:34:12.100Z,1.90
2023-04-25T08:36:48.546Z,1.63
2023-04-25T08:39:31.824Z,1.80
2023-04-25T08:42:19.131Z,1.60
2023-04-25T08:44:48.459Z,1.93
2023-04-25T08:47:15.351Z,1.70
2023-04-25T08:49:47.987Z,1.90
2023-04-25T08:52:20.942Z,2.03
2023-04-25T08:54:49.884Z,2.23
2023-04-25T08:57:19.231Z,2.50
2023-04-25T08:59:48.362Z,2.13
2023-04-25T09:02:17.725Z,2.40
2023-04-25T09:04:47.744Z,2.40
2023-04-25T09:07:19.373Z,2.17
2023-04-25T09:09:46.258Z,2.33
2023-04-25T09:12:15.636Z,2.57
2023-04-25T09:14:43.914Z,2.17
2023-04-25T09:17:26.843Z,2.47
2023-04-25T09:19:55.408Z,2.50
2023-04-25T09:22:27.103Z,2.30
2023-04-25T09:24:54.019Z,2.33
2023-04-25T09:27:24.244Z,2.33
2023-04-25T09:30:03.375Z,2.33
2023-04-25T09:32:46.667Z,2.47
2023-04-25T09:35:25.779Z,2.50
2023-04-25T09:37:53.233Z,2.80
2023-04-25T09:40:53.086Z,2.70
2023-04-25T09:43:28.911Z,3.20
2023-04-25T09:45:59.924Z,3.33
2023-04-25T09:48:28.844Z,3.67
2023-04-25T09:51:07.978Z,3.03
2023-04-25T09:53:37.495Z,3.57
2023-04-25T09:56:26.485Z,3.47
2023-04-25T09:58:55.882Z,3.40
2023-04-25T10:01:24.197Z,3.20
2023-04-25T10:04:07.682Z,3.40
2023-04-25T10:06:44.995Z,2.80
2023-04-25T10:09:13.575Z,3.40
2023-04-25T10:11:41.001Z,3.23
2023-04-25T10:14:07.986Z,3.10
2023-04-25T10:16:35.771Z,3.30
2023-04-25T10:19:03.892Z,3.03
2023-04-25T10:21:33.977Z,3.00
2023-04-25T10:24:01.188Z,3.23
2023-04-25T10:26:30.739Z,3.70
2023-04-25T10:29:00.449Z,3.00
2023-04-25T10:31:27.504Z,2.97
2023-04-25T10:33:54.731Z,2.83
2023-04-25T10:36:28.365Z,2.33
2023-04-25T10:38:55.451Z,2.90
2023-04-25T10:41:24.047Z,3.70
2023-04-25T10:43:59.996Z,3.33
2023-04-25T10:46:28.557Z,2.50
2023-04-25T10:48:57.210Z,2.93
2023-04-25T10:51:34.520Z,2.00
2023-04-25T10:54:06.524Z,2.30
2023-04-25T10:56:33.298Z,2.10
2023-04-25T10:59:16.255Z,2.23
2023-04-25T11:01:48.137Z,2.50
2023-04-25T11:04:22.848Z,2.00
2023-04-25T11:07:07.720Z,2.40
2023-04-25T11:09:41.425Z,2.33
2023-04-25T11:15:04.307Z,1.67
2023-04-25T11:17:31.327Z,1.80
2023-04-25T11:19:58.417Z,2.10
2023-04-25T11:22:25.353Z,2.00
2023-04-25T11:24:52.375Z,1.83
2023-04-25T11:27:19.292Z,1.90
2023-04-25T11:29:48.909Z,1.63
2023-04-25T11:32:17.467Z,1.93
2023-04-25T11:34:48.846Z,2.00
2023-04-25T11:37:16.404Z,1.90
2023-04-25T11:39:49.350Z,1.50
2023-04-25T11:42:16.251Z,1.87
2023-04-25T11:44:43.253Z,1.90
2023-04-25T11:47:10.099Z,1.67
2023-04-25T11:49:36.921Z,1.60
2023-04-25T11:52:04.115Z,1.70
2023-04-25T11:54:31.119Z,1.60
2023-04-25T11:56:57.936Z,1.40
2023-04-25T11:59:26.447Z,1.60
2023-04-25T12:01:53.467Z,1.50
2023-04-25T12:04:24.505Z,1.97
2023-04-25T12:06:56.232Z,1.60
2023-04-25T12:09:34.528Z,1.70
2023-04-25T12:12:05.020Z,2.30
2023-04-25T12:14:33.652Z,2.03
2023-04-25T12:17:02.368Z,1.60
2023-04-25T12:19:37.291Z,1.60
2023-04-25T12:22:19.296Z,2.30
2023-04-25T12:24:46.203Z,1.90
2023-04-25T12:27:19.840Z,2.00
2023-04-25T12:29:55.481Z,1.37
2023-04-25T12:32:22.479Z,1.57
2023-04-25T12:34:49.339Z,2.37
2023-04-25T12:37:16.639Z,2.60
2023-04-25T12:39:43.477Z,3.00
2023-04-25T12:42:12.701Z,2.70
2023-04-25T12:44:40.151Z,2.90
2023-04-25T12:47:07.032Z,3.17
2023-04-25T12:49:34.067Z,2.60
2023-04-25T12:52:00.848Z,2.60
2023-04-25T12:54:27.663Z,2.43
2023-04-25T12:56:54.673Z,2.93
2023-04-25T12:59:22.273Z,2.40
2023-04-25T13:01:49.295Z,2.60
2023-04-25T13:04:17.014Z,2.57
2023-04-25T13:06:44.343Z,2.33
2023-04-25T13:09:13.209Z,2.40
2023-04-25T13:11:41.485Z,2.23
2023-04-25T13:14:08.490Z,2.67
2023-04-25T13:16:35.614Z,2.03
2023-04-25T13:19:02.483Z,2.27
2023-04-25T13:21:32.997Z,2.10
2023-04-25T13:23:59.880Z,2.60
2023-04-25T13:26:27.098Z,2.47
2023-04-25T13:28:53.933Z,3.13
2023-04-25T13:31:20.799Z,3.13
2023-04-25T13:33:47.639Z,2.47
2023-04-25T13:36:14.724Z,2.17
2023-04-25T13:38:44.683Z,2.50
2023-04-25T13:41:14.742Z,2.60
2023-04-25T13:43:41.527Z,2.67
2023-04-25T13:46:09.724Z,2.47
2023-04-25T13:48:39.579Z,2.10
2023-04-25T13:51:06.319Z,2.80
2023-04-25T13:53:33.145Z,2.30
2023-04-25T13:55:59.832Z,1.70
2023-04-25T13:58:26.767Z,1.37
2023-04-25T14:00:54.597Z,1.00
2023-04-25T14:03:21.440Z,1.40
2023-04-25T14:05:48.281Z,1.20
2023-04-25T14:08:15.067Z,1.20
2023-04-25T14:10:41.838Z,0.90
2023-04-25T14:13:10.640Z,1.20
2023-04-25T14:15:38.355Z,0.87
2023-04-25T14:18:05.512Z,1.27
2023-04-25T14:20:32.353Z,1.23
2023-04-25T14:22:59.582Z,1.23
2023-04-25T14:25:26.726Z,1.63
2023-04-25T14:27:53.723Z,1.37
2023-04-25T14:30:21.999Z,1.30
2023-04-25T14:32:51.856Z,1.50
2023-04-25T14:35:19.362Z,1.50
2023-04-25T14:37:46.594Z,1.73
2023-04-25T14:40:16.144Z,1.53
2023-04-25T14:42:43.225Z,1.40
2023-04-25T14:45:10.436Z,2.40
2023-04-25T14:47:40.551Z,1.67
2023-04-25T14:50:09.492Z,1.50
2023-04-25T14:52:36.280Z,1.47
2023-04-25T14:55:06.308Z,1.63
2023-04-25T14:57:34.442Z,1.20
2023-04-25T15:00:01.737Z,1.20
2023-04-25T15:02:29.246Z,1.53
2023-04-25T15:04:56.962Z,1.50
2023-04-25T15:07:24.035Z,1.80
2023-04-25T15:09:50.842Z,1.63
2023-04-25T15:12:17.742Z,1.50
2023-04-25T15:14:44.545Z,2.37
2023-04-25T15:17:13.796Z,2.77
2023-04-25T15:19:41.127Z,2.00
2023-04-25T15:22:08.096Z,1.83
2023-04-25T15:24:35.208Z,1.90
2023-04-25T15:27:01.965Z,1.80
2023-04-25T15:29:29.717Z,1.80
2023-04-25T15:31:56.734Z,1.53
2023-04-25T15:34:23.595Z,2.00
2023-04-25T15:36:50.374Z,1.73
2023-04-25T15:39:17.670Z,2.20
2023-04-25T15:41:44.448Z,2.17
2023-04-25T15:44:11.264Z,3.33
2023-04-25T15:46:39.086Z,2.97
2023-04-25T15:49:05.998Z,2.67
2023-04-25T15:51:33.753Z,4.60
2023-04-25T15:54:02.503Z,4.80
2023-04-25T15:56:29.500Z,2.07
2023-04-25T15:58:56.252Z,2.13
2023-04-25T16:01:24.573Z,2.80
2023-04-25T16:03:53.122Z,3.30
2023-04-25T16:06:20.543Z,2.20
2023-04-25T16:08:47.371Z,2.57
2023-04-25T16:11:14.809Z,1.80
2023-04-25T16:13:41.758Z,1.53
2023-04-25T16:16:08.722Z,1.43
2023-04-25T16:18:35.730Z,2.00
2023-04-25T16:21:03.096Z,2.30
2023-04-25T16:23:29.876Z,1.93
2023-04-25T16:25:56.797Z,2.30
2023-04-25T16:28:23.596Z,2.60
2023-04-25T16:30:50.468Z,2.50
2023-04-25T16:33:17.359Z,2.77
2023-04-25T16:35:44.441Z,3.03
2023-04-25T16:38:11.200Z,2.67
2023-04-25T16:40:38.076Z,2.43
2023-04-25T16:43:04.871Z,2.43
2023-04-25T16:45:31.867Z,2.80
2023-04-25T16:47:58.707Z,2.33
2023-04-25T16:50:26.768Z,2.53
2023-04-25T16:52:54.594Z,2.40
2023-04-25T16:55:21.457Z,3.03
2023-04-25T16:57:48.259Z,3.23
2023-04-25T17:00:15.939Z,3.40
2023-04-25T17:02:44.518Z,4.00
2023-04-25T17:05:12.402Z,3.83
2023-04-25T17:07:39.540Z,4.60
2023-04-25T17:10:07.004Z,4.80
2023-04-25T17:12:34.052Z,3.30
2023-04-25T17:15:01.977Z,3.27
2023-04-25T17:17:28.748Z,4.27
2023-04-25T17:19:55.857Z,9.00
2023-04-25T17:22:22.776Z,6.00
2023-04-25T17:24:49.822Z,6.50
2023-04-25T17:27:16.643Z,10.30
2023-04-25T17:29:43.370Z,18.40
2023-04-25T17:32:10.466Z,10.13
2023-04-25T17:34:39.821Z,8.30
2023-04-25T17:37:07.392Z,4.57
2023-04-25T17:39:34.222Z,4.10
2023-04-25T17:42:01.191Z,4.23
2023-04-25T17:44:28.008Z,4.30
2023-04-25T17:46:54.787Z,4.83
2023-04-25T17:49:21.523Z,6.13
2023-04-25T17:51:48.275Z,4.70
2023-04-25T17:54:15.024Z,3.33
2023-04-25T17:56:41.851Z,3.70
2023-04-25T17:59:08.596Z,3.30
2023-04-25T18:01:35.944Z,4.20
2023-04-25T18:04:04.285Z,4.20
2023-04-25T18:06:32.851Z,4.13
2023-04-25T18:08:59.697Z,4.20
2023-04-25T18:11:26.608Z,3.60
2023-04-25T18:13:53.785Z,4.90
2023-04-25T18:16:20.619Z,4.23
2023-04-25T18:18:53.465Z,6.03
2023-04-25T18:21:20.667Z,4.40
2023-04-25T18:23:47.625Z,3.87
2023-04-25T18:26:15.884Z,4.17
2023-04-25T18:28:42.853Z,3.93
2023-04-25T18:31:09.764Z,4.00
2023-04-25T18:33:36.660Z,3.57
2023-04-25T18:36:03.580Z,3.67
2023-04-25T18:41:12.949Z,4.20
2023-04-25T18:43:46.933Z,4.60
2023-04-25T18:46:13.771Z,3.67
2023-04-25T18:48:40.672Z,4.33
2023-04-25T18:51:07.618Z,4.70
2023-04-25T18:53:34.543Z,4.10
2023-04-25T18:56:01.380Z,4.30
2023-04-25T18:58:28.243Z,4.17
2023-04-25T19:00:55.317Z,4.77
2023-04-25T19:03:22.534Z,4.67
2023-04-25T19:05:49.672Z,5.43
2023-04-25T19:08:16.426Z,4.70
2023-04-25T19:10:43.240Z,4.30
2023-04-25T19:13:09.978Z,5.83
2023-04-25T19:15:36.861Z,5.77
2023-04-25T19:18:04.392Z,5.50
2023-04-25T19:20:32.918Z,4.30
2023-04-25T19:22:59.659Z,4.90
2023-04-25T19:25:26.397Z,5.23
2023-04-25T19:27:53.557Z,5.47
2023-04-25T19:30:20.648Z,4.23
2023-04-25T19:32:47.464Z,4.27
2023-04-25T19:35:14.450Z,4.30
2023-04-25T19:37:46.326Z,5.33
2023-04-25T19:40:17.919Z,4.83
2023-04-25T19:42:45.226Z,5.43
2023-04-25T19:45:12.626Z,5.83
2023-04-25T19:47:39.538Z,5.00
2023-04-25T19:50:08.514Z,5.97
2023-04-25T19:52:36.368Z,4.80
2023-04-25T19:55:04.798Z,4.50
2023-04-25T19:57:37.779Z,4.27
2023-04-25T20:00:08.894Z,4.00
2023-04-25T20:02:45.140Z,4.07
2023-04-25T20:05:14.787Z,4.27
2023-04-25T20:07:41.969Z,4.93
2023-04-25T20:10:12.544Z,5.30
2023-04-25T20:12:42.453Z,4.83
2023-04-25T20:15:11.589Z,5.60
2023-04-25T20:17:41.500Z,4.60
2023-04-25T20:20:09.967Z,5.20
2023-04-25T20:22:38.668Z,5.67
2023-04-25T20:25:07.055Z,5.33
2023-04-25T20:27:33.920Z,5.03
2023-04-25T20:30:04.624Z,6.20
2023-04-25T20:32:34.411Z,5.47
2023-04-25T20:35:05.609Z,4.93
2023-04-25T20:37:32.554Z,4.30
2023-04-25T20:40:04.953Z,4.17
2023-04-25T20:42:32.217Z,5.97
2023-04-25T20:44:59.076Z,5.87
2023-04-25T20:47:25.932Z,6.20
2023-04-25T20:49:52.941Z,5.90
2023-04-25T20:52:19.739Z,5.57
2023-04-25T20:54:50.454Z,5.13
2023-04-25T20:57:17.640Z,4.60
2023-04-25T20:59:44.784Z,4.30
2023-04-25T21:02:14.808Z,3.87
2023-04-25T21:04:44.248Z,5.60
2023-04-25T21:07:12.768Z,4.73
2023-04-25T21:09:45.381Z,5.23
2023-04-25T21:12:12.231Z,6.90
2023-04-25T21:14:39.181Z,6.17
2023-04-25T21:17:06.010Z,6.57
2023-04-25T21:19:33.103Z,6.67
2023-04-25T21:22:00.250Z,5.13
2023-04-25T21:24:27.356Z,4.63
2023-04-25T21:26:54.205Z,5.33
2023-04-25T21:29:20.964Z,5.20
2023-04-25T21:31:48.163Z,5.80
2023-04-25T21:34:15.073Z,5.17
2023-04-25T21:36:41.786Z,4.87
2023-04-25T21:39:10.723Z,6.00
2023-04-25T21:41:37.961Z,5.27
2023-04-25T21:44:04.856Z,5.30
2023-04-25T21:46:31.631Z,5.80
2023-04-25T21:48:58.561Z,5.47
2023-04-25T21:51:25.443Z,5.33
2023-04-25T21:53:52.264Z,4.60
2023-04-25T21:56:18.979Z,4.57
2023-04-25T21:58:45.954Z,5.87
2023-04-25T22:01:12.814Z,4.13
2023-04-25T22:03:39.660Z,4.43
2023-04-25T22:06:06.728Z,4.10
2023-04-25T22:08:33.591Z,4.13
2023-04-25T22:11:02.777Z,4.80
2023-04-25T22:13:29.852Z,5.10
2023-04-25T22:15:56.721Z,5.17
2023-04-25T22:18:23.486Z,4.73
2023-04-25T22:20:50.186Z,5.23
2023-04-25T22:23:17.224Z,5.60
2023-04-25T22:25:44.006Z,5.67
2023-04-25T22:28:12.511Z,5.93
2023-04-25T22:30:39.248Z,5.33
2023-04-25T22:33:06.546Z,5.00
2023-04-25T22:35:33.393Z,4.90
2023-04-25T22:38:00.176Z,5.10
2023-04-25T22:40:27.148Z,5.13
2023-04-25T22:42:53.968Z,4.80
2023-04-25T22:45:20.880Z,5.30
2023-04-25T22:47:47.970Z,3.87
2023-04-25T22:50:16.778Z,4.37
2023-04-25T22:52:43.964Z,4.80
2023-04-25T22:55:12.444Z,4.80
2023-04-25T22:57:40.234Z,4.63
2023-04-25T23:00:15.859Z,5.03
2023-04-25T23:02:45.751Z,4.43
2023-04-25T23:05:13.555Z,5.60
2023-04-25T23:07:40.580Z,5.43
2023-04-25T23:10:08.405Z,5.83
2023-04-25T23:12:35.543Z,5.77
2023-04-25T23:15:04.963Z,5.70
2023-04-25T23:17:31.980Z,6.20
2023-04-25T23:19:58.761Z,5.60
2023-04-25T23:22:25.519Z,5.27
2023-04-25T23:24:52.265Z,5.40
2023-04-25T23:27:19.082Z,5.93
2023-04-25T23:29:54.662Z,6.17
2023-04-25T23:32:22.322Z,5.90
2023-04-25T23:34:49.371Z,5.03
2023-04-25T23:37:16.393Z,5.23
2023-04-25T23:39:50.809Z,5.37
2023-04-25T23:42:18.306Z,6.40
2023-04-25T23:44:45.157Z,6.93
2023-04-25T23:47:13.775Z,7.00
2023-04-25T23:49:41.048Z,7.53
2023-04-25T23:52:07.982Z,6.60
2023-04-25T23:54:34.818Z,7.13
2023-04-25T23:57:04.584Z,7.90
2023-04-25T23:59:31.829Z,7.50
